Terminal Aerodrome Forecast
Issued by NWS

Home | Current Version | Previous Version | Text Only | Print | Product List | Glossary On
Versions: 1 2 3 4 5 6 7 8 9 10 11 12 13
000
FTUS46 KPDT 301740
TAFDLS
TAF
KDLS 301740Z 3018/0118 30025G33KT P6SM FEW050 FEW200
     FM010200 30015KT P6SM SCT050
     FM010600 30008KT P6SM FEW045
     FM011300 29007KT P6SM BKN110 BKN130=

USA.gov is the U.S. government's official web portal to all federal, state and local government web resources and services.